Time;durP1;ratioP1;P1;durP2;ratioP2;P2;SDS_P1;SDS_P2;PMS_P1;PMS_P2;Temp;Humidity;BMP_temperature;BMP_pressure;BME280_temperature;BME280_humidity;BME280_pressure;Samples;Min_cycle;Max_cycle;Signal;HPM_P1;HPM_P2
2022/04/12 00:00:00;;;;;;;88.70;41.50;;;;;;;2.28;68.73;98978.71;218887;1278;22547;-70
2022/04/12 00:05:13;;;;;;;84.20;38.70;;;;;;;2.18;69.00;98978.19;218675;1278;22584;-70
2022/04/12 00:10:34;;;;;;;82.50;39.40;;;;;;;2.11;69.21;98977.91;218604;1280;22563;-69
2022/04/12 00:15:40;;;;;;;74.30;37.00;;;;;;;2.03;69.32;98972.01;218691;1277;25261;-70
2022/04/12 00:20:44;;;;;;;77.70;39.10;;;;;;;1.95;69.58;98965.84;218687;1277;26520;-70
2022/04/12 00:25:54;;;;;;;75.80;37.40;;;;;;;1.85;69.72;98964.11;218873;1278;22544;-70
2022/04/12 00:30:58;;;;;;;81.20;37.60;;;;;;;1.75;69.96;98955.94;219213;1278;22705;-70
2022/04/12 00:36:04;;;;;;;78.10;37.80;;;;;;;1.65;70.16;98951.68;219405;1280;25306;-70
2022/04/12 00:41:08;;;;;;;82.00;39.40;;;;;;;1.58;70.48;98957.15;218502;1281;22780;-70
2022/04/12 00:46:12;;;;;;;78.70;37.50;;;;;;;1.50;70.53;98959.33;218573;1280;25406;-70
2022/04/12 00:51:20;;;;;;;79.70;39.60;;;;;;;1.41;70.85;98961.10;218609;1280;22610;-70
2022/04/12 00:56:35;;;;;;;92.30;42.60;;;;;;;1.33;70.87;98961.63;218541;1280;26558;-70
2022/04/12 01:02:00;;;;;;;95.10;47.00;;;;;;;1.25;71.02;98960.83;218668;1280;22537;-70
2022/04/12 01:07:26;;;;;;;103.80;46.30;;;;;;;1.16;71.26;98966.48;218388;1279;22594;-70
2022/04/12 01:12:30;;;;;;;92.90;43.30;;;;;;;1.07;71.39;98968.15;218907;1281;23809;-70
2022/04/12 01:17:39;;;;;;;91.00;41.70;;;;;;;0.97;71.59;98969.98;218983;1279;22590;-70
2022/04/12 01:22:58;;;;;;;91.50;42.40;;;;;;;0.88;71.69;98973.52;219407;1280;25408;-70
2022/04/12 01:28:07;;;;;;;91.30;42.90;;;;;;;0.81;72.04;98979.39;219493;1281;22566;-71
2022/04/12 01:33:10;;;;;;;94.50;43.70;;;;;;;0.76;72.20;98983.52;219433;1281;22580;-70
2022/04/12 01:38:17;;;;;;;95.00;44.80;;;;;;;0.66;72.21;98975.37;218847;1281;22606;-69
2022/04/12 01:43:22;;;;;;;111.50;52.60;;;;;;;0.63;72.46;98980.59;218440;1281;22545;-72
2022/04/12 01:48:26;;;;;;;106.30;49.80;;;;;;;0.57;72.66;98978.63;218352;1280;22730;-69
2022/04/12 01:53:39;;;;;;;;;;;;;;;;;;;;;
2022/04/12 01:58:47;;;;;;;102.70;48.10;;;;;;;0.48;72.95;98980.73;218952;1281;22548;-71
2022/04/12 02:03:49;;;;;;;85.50;43.00;;;;;;;0.42;73.06;98981.02;218792;1281;25498;-70
2022/04/12 02:08:51;;;;;;;92.40;45.40;;;;;;;0.37;73.11;98988.46;218743;1281;22563;-70
2022/04/12 02:14:03;;;;;;;97.20;44.60;;;;;;;0.32;73.45;98997.66;218515;1280;24076;-70
2022/04/12 02:19:14;;;;;;;92.40;43.30;;;;;;;0.28;73.73;98995.71;219609;1281;22722;-70
2022/04/12 02:24:20;;;;;;;86.10;42.10;;;;;;;0.24;73.76;98995.73;219285;1279;25067;-70
2022/04/12 02:29:23;;;;;;;83.90;41.20;;;;;;;0.19;73.99;98999.98;219433;1280;25333;-69
2022/04/12 02:34:28;;;;;;;84.70;42.10;;;;;;;0.18;74.19;98998.98;218571;1277;23203;-70
2022/04/12 02:39:30;;;;;;;84.00;40.50;;;;;;;0.21;74.20;99004.73;218661;1277;22562;-68
2022/04/12 02:44:32;;;;;;;78.80;39.00;;;;;;;0.28;74.47;99007.42;218617;1277;25449;-71
2022/04/12 02:49:35;;;;;;;75.20;39.90;;;;;;;0.40;74.49;99013.81;218625;1277;25965;-70
2022/04/12 02:54:37;;;;;;;68.00;33.30;;;;;;;0.52;74.48;99006.00;218644;1277;23858;-70
2022/04/12 02:59:39;;;;;;;64.20;32.30;;;;;;;0.64;74.55;99008.54;218562;1277;25645;-70
2022/04/12 03:04:42;;;;;;;67.40;35.50;;;;;;;0.73;74.31;99003.98;218871;1277;25283;-69
2022/04/12 03:09:44;;;;;;;75.10;37.70;;;;;;;0.81;74.57;99006.82;218753;1278;25427;-70
2022/04/12 03:14:47;;;;;;;68.30;35.30;;;;;;;0.87;74.34;99007.25;218699;1278;25321;-69
2022/04/12 03:19:51;;;;;;;65.80;34.80;;;;;;;0.91;74.00;99004.99;218875;1277;26963;-70
2022/04/12 03:24:55;;;;;;;62.90;32.90;;;;;;;0.95;74.29;99003.95;218671;1278;22553;-70
2022/04/12 03:30:00;;;;;;;58.60;30.70;;;;;;;0.97;73.91;99000.05;218886;1278;25374;-69
2022/04/12 03:35:06;;;;;;;61.80;30.80;;;;;;;0.98;74.17;99005.10;218787;1280;25938;-70
2022/04/12 03:40:10;;;;;;;65.00;34.60;;;;;;;1.00;73.93;99007.52;218680;1280;22561;-70
2022/04/12 03:45:13;;;;;;;66.70;34.70;;;;;;;1.02;74.12;99006.89;218873;1280;22703;-70
2022/04/12 03:50:16;;;;;;;66.50;34.40;;;;;;;1.06;74.27;99010.02;219401;1279;22717;-70
2022/04/12 03:55:34;;;;;;;59.50;32.90;;;;;;;1.08;74.49;99011.94;218540;1280;22569;-69
2022/04/12 04:00:38;;;;;;;67.30;34.90;;;;;;;1.10;74.54;99006.59;218875;1280;22549;-70
2022/04/12 04:05:41;;;;;;;65.40;35.80;;;;;;;1.12;74.72;99012.61;218610;1280;22558;-70
2022/04/12 04:10:43;;;;;;;66.40;35.40;;;;;;;1.13;74.42;99015.27;218784;1280;22566;-69
2022/04/12 04:15:50;;;;;;;63.40;34.60;;;;;;;1.16;74.53;99022.40;218891;1279;25267;-69
2022/04/12 04:20:56;;;;;;;66.00;34.10;;;;;;;1.20;74.53;99027.48;218865;1279;22571;-70
2022/04/12 04:25:58;;;;;;;64.30;33.20;;;;;;;1.24;74.68;99038.48;218606;1279;22646;-72
2022/04/12 04:31:01;;;;;;;60.10;33.30;;;;;;;1.27;74.86;99038.16;218312;1279;23035;-69
2022/04/12 04:36:04;;;;;;;61.40;34.70;;;;;;;1.30;74.72;99042.63;218709;1277;22607;-70
2022/04/12 04:41:07;;;;;;;63.70;34.90;;;;;;;1.35;74.90;99049.31;218832;1277;22714;-69
2022/04/12 04:46:10;;;;;;;74.50;40.30;;;;;;;1.41;74.70;99046.80;218816;1277;22541;-69
2022/04/12 04:51:13;;;;;;;83.10;42.50;;;;;;;1.45;74.57;99048.95;218733;1277;23054;-70
2022/04/12 04:56:17;;;;;;;102.90;50.70;;;;;;;1.42;74.50;99054.38;218696;1277;24382;-69
2022/04/12 05:01:21;;;;;;;80.70;41.80;;;;;;;1.45;74.32;99062.75;218931;1277;24252;-70
2022/04/12 05:06:27;;;;;;;68.40;36.40;;;;;;;1.52;74.77;99064.95;219691;1277;24369;-70
2022/04/12 05:11:31;;;;;;;83.90;38.00;;;;;;;1.65;74.78;99066.18;219773;1278;22677;-70
2022/04/12 05:16:34;;;;;;;86.10;42.10;;;;;;;1.75;74.46;99072.63;219702;1277;22586;-70
2022/04/12 05:21:40;;;;;;;72.80;39.40;;;;;;;1.82;74.59;99083.44;218837;1277;24408;-69
2022/04/12 05:26:48;;;;;;;81.40;41.40;;;;;;;1.94;74.77;99091.41;218764;1277;22608;-70
2022/04/12 05:31:51;;;;;;;68.70;40.60;;;;;;;2.09;74.95;99098.85;220055;1278;22590;-70
2022/04/12 05:36:54;;;;;;;60.60;36.30;;;;;;;2.28;75.07;99101.59;219696;1279;22564;-71
2022/04/12 05:42:09;;;;;;;63.00;36.00;;;;;;;2.49;74.73;99107.50;218225;1279;22582;-69
2022/04/12 05:47:18;;;;;;;60.50;35.50;;;;;;;2.69;74.65;99113.61;218487;1279;24267;-69
2022/04/12 05:52:23;;;;;;;71.70;41.30;;;;;;;2.86;73.93;99118.76;218368;1279;22704;-69
2022/04/12 05:57:56;;;;;;;67.20;40.30;;;;;;;3.03;73.67;99119.30;218322;1279;24556;-69
2022/04/12 06:03:35;;;;;;;66.50;37.30;;;;;;;3.25;73.73;99118.46;218195;1279;22556;-69
2022/04/12 06:09:27;;;;;;;60.00;35.00;;;;;;;3.54;73.48;99120.56;219849;1279;22543;-70
2022/04/12 06:14:51;;;;;;;63.50;35.60;;;;;;;3.87;73.42;99124.77;218329;1279;24256;-69
2022/04/12 06:20:32;;;;;;;57.20;34.50;;;;;;;4.15;73.03;99128.70;218327;1278;25253;-69
2022/04/12 06:25:41;;;;;;;42.40;23.60;;;;;;;4.43;72.65;99126.11;220103;1277;22553;-70
2022/04/12 06:30:59;;;;;;;44.10;25.00;;;;;;;4.68;71.82;99128.27;218487;1279;24875;-70
2022/04/12 06:36:32;;;;;;;38.20;19.40;;;;;;;4.95;71.13;99126.55;217914;1279;24320;-70
2022/04/12 06:41:35;;;;;;;25.40;15.00;;;;;;;5.16;70.06;99126.61;218087;1279;22548;-69
2022/04/12 06:46:47;;;;;;;22.70;15.60;;;;;;;5.30;69.10;99127.13;218304;1279;22557;-70
2022/04/12 06:51:51;;;;;;;24.60;15.60;;;;;;;5.53;69.37;99129.51;218089;1278;22649;-69
2022/04/12 06:56:54;;;;;;;31.70;17.20;;;;;;;5.78;68.87;99128.70;218703;1280;24166;-69
2022/04/12 07:02:13;;;;;;;23.10;14.30;;;;;;;6.03;67.77;99133.73;218202;1278;22598;-69
2022/04/12 07:07:30;;;;;;;23.40;12.30;;;;;;;6.24;66.92;99136.45;218279;1279;22570;-71
2022/04/12 07:12:53;;;;;;;20.80;9.80;;;;;;;6.53;66.47;99141.21;218105;1279;22590;-68
2022/04/12 07:17:59;;;;;;;;;;;;;;;6.76;65.82;99146.55;218389;1279;22528;-69
2022/04/12 07:23:12;;;;;;;17.10;10.20;;;;;;;6.96;64.67;99153.13;218192;1278;22608;-69
2022/04/12 07:28:28;;;;;;;10.30;7.00;;;;;;;7.16;63.94;99160.19;218199;1278;397275;-69
2022/04/12 07:33:34;;;;;;;7.70;4.90;;;;;;;7.45;63.37;99159.57;218439;1279;25387;-68
2022/04/12 07:38:40;;;;;;;7.40;4.50;;;;;;;7.70;61.66;99161.92;218333;1279;22622;-69
2022/04/12 07:44:03;;;;;;;;;;;;;;;;;;;;;
2022/04/12 07:49:14;;;;;;;13.50;8.00;;;;;;;8.03;60.26;99168.96;218392;1279;22609;-68
2022/04/12 07:54:39;;;;;;;16.90;9.20;;;;;;;8.19;59.61;99164.13;218454;1279;24417;-74
2022/04/12 08:00:05;;;;;;;13.40;7.90;;;;;;;8.31;58.49;99169.14;218428;1279;25091;-69
2022/04/12 08:05:24;;;;;;;11.50;7.60;;;;;;;8.50;57.84;99170.27;218244;1278;22577;-71
2022/04/12 08:10:29;;;;;;;15.20;8.90;;;;;;;8.63;56.67;99172.77;218517;1279;22667;-70
2022/04/12 08:15:33;;;;;;;13.80;8.10;;;;;;;8.73;56.13;99169.06;218314;1279;22926;-69
2022/04/12 08:20:36;;;;;;;13.60;8.80;;;;;;;8.83;55.67;99170.36;218304;1278;22747;-70
2022/04/12 08:25:58;;;;;;;13.70;9.30;;;;;;;9.03;55.95;99171.22;219188;1278;24368;-69
2022/04/12 08:31:01;;;;;;;17.90;10.10;;;;;;;9.28;56.31;99171.73;218281;1279;22593;-69
2022/04/12 08:36:05;;;;;;;20.40;12.30;;;;;;;9.45;55.72;99168.92;218580;1279;22571;-69
2022/04/12 08:41:10;;;;;;;20.50;11.80;;;;;;;9.60;55.70;99172.68;218579;1279;25112;-69
2022/04/12 08:46:31;;;;;;;17.90;10.70;;;;;;;9.81;55.32;99168.27;218050;1278;22575;-69
2022/04/12 08:51:36;;;;;;;17.80;10.10;;;;;;;10.00;55.19;99166.48;218450;1279;25673;-69
2022/04/12 08:56:50;;;;;;;18.60;10.80;;;;;;;10.16;54.07;99170.05;218195;1279;22588;-68
2022/04/12 09:02:06;;;;;;;13.10;8.10;;;;;;;10.25;52.97;99171.88;218475;1278;22553;-69
2022/04/12 09:07:30;;;;;;;13.60;7.50;;;;;;;10.38;52.76;99170.92;218434;1278;22544;-70
2022/04/12 09:12:37;;;;;;;6.70;4.40;;;;;;;10.57;51.77;99166.31;218253;1279;22563;-70
2022/04/12 09:17:52;;;;;;;6.00;3.90;;;;;;;10.73;50.63;99165.27;218639;1279;24254;-70
2022/04/12 09:23:01;;;;;;;5.50;3.30;;;;;;;10.89;49.27;99160.71;218460;1279;24788;-68
2022/04/12 09:28:18;;;;;;;;;;;;;;;;;;;;;
2022/04/12 09:33:54;;;;;;;8.10;4.70;;;;;;;11.08;48.91;99153.15;218332;1279;22622;-69
2022/04/12 09:39:11;;;;;;;5.90;4.10;;;;;;;11.30;48.93;99151.65;218690;1279;22544;-69
2022/04/12 09:45:17;;;;;;;;;;;;;;;;;;;;;
2022/04/12 09:51:14;;;;;;;9.20;4.60;;;;;;;11.55;48.10;99144.48;218250;1279;22553;-69
2022/04/12 09:56:29;;;;;;;6.50;4.60;;;;;;;11.70;48.07;99141.61;218588;1279;22477;-69
2022/04/12 10:02:02;;;;;;;8.30;5.10;;;;;;;11.77;47.31;99136.86;217799;1279;22557;-68
2022/04/12 10:07:32;;;;;;;8.40;5.20;;;;;;;11.81;47.15;99136.66;217646;1279;25457;-69
2022/04/12 10:12:48;;;;;;;6.50;4.90;;;;;;;11.91;46.46;99135.83;218385;1279;25604;-67
2022/04/12 10:18:21;;;;;;;9.00;5.80;;;;;;;11.95;45.80;99131.31;218327;1279;22562;-68
2022/04/12 10:23:25;;;;;;;9.60;5.40;;;;;;;12.00;45.82;99129.30;218290;1279;22633;-69
2022/04/12 10:28:32;;;;;;;7.80;5.50;;;;;;;12.04;45.41;99121.48;218656;1278;22586;-67
2022/04/12 10:34:02;;;;;;;7.60;4.90;;;;;;;12.05;44.87;99120.44;218470;1279;22517;-68
2022/04/12 10:39:12;;;;;;;9.30;5.40;;;;;;;12.03;44.24;99120.57;219344;1279;22543;-68
2022/04/12 10:44:25;;;;;;;7.90;4.90;;;;;;;12.05;44.41;99110.94;218330;1279;24910;-69
2022/04/12 10:49:36;;;;;;;8.10;5.50;;;;;;;12.14;44.87;99103.94;218279;1279;22566;-69
2022/04/12 10:54:54;;;;;;;5.80;4.20;;;;;;;12.32;44.71;99103.30;218524;1279;22589;-68
2022/04/12 11:00:22;;;;;;;7.90;5.70;;;;;;;12.47;44.18;99105.33;218474;1279;22612;-68
2022/04/12 11:05:57;;;;;;;7.90;5.70;;;;;;;12.51;43.50;99107.15;218411;1279;25327;-69
2022/04/12 11:11:04;;;;;;;7.00;4.90;;;;;;;12.54;43.44;99100.33;218102;1279;22588;-69
2022/04/12 11:16:20;;;;;;;5.60;4.20;;;;;;;12.62;43.53;99090.25;218418;1279;24828;-68
2022/04/12 11:21:26;;;;;;;6.40;4.70;;;;;;;12.72;43.21;99087.09;218495;1279;22577;-67
2022/04/12 11:26:46;;;;;;;6.40;4.90;;;;;;;12.80;42.78;99074.85;218301;1279;22553;-67
2022/04/12 11:31:53;;;;;;;5.90;4.40;;;;;;;12.89;42.67;99073.63;218363;1279;22620;-68
2022/04/12 11:37:07;;;;;;;7.70;5.10;;;;;;;12.94;42.33;99079.56;219157;1278;22600;-68
2022/04/12 11:42:15;;;;;;;5.30;4.00;;;;;;;13.02;41.95;99075.86;218962;1279;22625;-68
2022/04/12 11:47:39;;;;;;;6.20;4.90;;;;;;;13.12;42.09;99069.98;219223;1279;22589;-68
2022/04/12 11:52:49;;;;;;;7.10;4.50;;;;;;;13.27;42.03;99076.33;218815;1279;25819;-68
2022/04/12 11:58:15;;;;;;;8.00;5.40;;;;;;;13.34;41.24;99072.90;218468;1279;24161;-68
2022/04/12 12:03:26;;;;;;;6.20;4.30;;;;;;;13.36;41.32;99073.80;218156;1279;22563;-68
2022/04/12 12:08:30;;;;;;;6.50;5.20;;;;;;;13.38;41.09;99075.22;218770;1278;22580;-68
2022/04/12 12:13:33;;;;;;;67.90;49.60;;;;;;;13.46;41.53;99069.66;218266;1279;22563;-68
2022/04/12 12:18:42;;;;;;;12.00;8.60;;;;;;;13.55;41.42;99063.08;218117;1279;22623;-67
2022/04/12 12:23:47;;;;;;;8.80;5.10;;;;;;;13.71;41.51;99062.55;218311;1279;22720;-72
2022/04/12 12:28:57;;;;;;;7.40;5.00;;;;;;;13.84;41.23;99059.41;218348;1279;22797;-67
2022/04/12 12:34:03;;;;;;;7.20;5.10;;;;;;;13.94;41.34;99050.64;218256;1279;22789;-67
2022/04/12 12:39:07;;;;;;;9.20;6.10;;;;;;;14.07;41.42;99042.05;218275;1279;22620;-69
2022/04/12 12:44:09;;;;;;;7.80;5.90;;;;;;;14.18;40.96;99042.38;218445;1279;25355;-68
2022/04/12 12:49:20;;;;;;;8.00;5.50;;;;;;;14.20;40.74;99037.42;219990;1278;22557;-69
2022/04/12 12:54:25;;;;;;;5.80;4.80;;;;;;;14.24;40.76;99038.92;218480;1279;25352;-68
2022/04/12 12:59:31;;;;;;;7.10;4.90;;;;;;;14.22;40.40;99044.50;218442;1279;22684;-70
2022/04/12 13:04:36;;;;;;;5.80;3.90;;;;;;;14.14;40.04;99039.79;219482;1279;25266;-69
2022/04/12 13:09:48;;;;;;;4.30;3.80;;;;;;;14.09;39.87;99040.13;218358;1278;22584;-68
2022/04/12 13:15:10;;;;;;;6.20;4.20;;;;;;;14.04;39.71;99038.30;218819;1279;25266;-68
2022/04/12 13:20:21;;;;;;;6.80;4.50;;;;;;;13.98;39.48;99042.14;218614;1279;25380;-68
2022/04/12 13:25:25;;;;;;;5.70;4.10;;;;;;;13.93;39.35;99039.73;218672;1279;22829;-68
2022/04/12 13:30:31;;;;;;;4.50;3.70;;;;;;;13.89;39.02;99038.85;218628;1279;25383;-69
2022/04/12 13:35:36;;;;;;;4.90;3.50;;;;;;;13.88;38.64;99038.45;218567;1279;22709;-69
2022/04/12 13:40:39;;;;;;;5.50;3.50;;;;;;;13.92;38.56;99038.63;218493;1279;22809;-70
2022/04/12 13:45:43;;;;;;;5.20;3.70;;;;;;;13.91;38.45;99043.30;218517;1279;22831;-68
2022/04/12 13:50:51;;;;;;;5.90;4.10;;;;;;;13.90;38.39;99035.70;218611;1279;22589;-70
2022/04/12 13:55:55;;;;;;;4.50;3.50;;;;;;;13.88;38.28;99028.91;218762;1279;22732;-68
2022/04/12 14:01:05;;;;;;;5.30;4.00;;;;;;;13.88;38.18;99029.23;218739;1279;22638;-68
2022/04/12 14:06:12;;;;;;;5.30;3.90;;;;;;;13.88;37.89;99026.53;218782;1279;22584;-68
2022/04/12 14:11:19;;;;;;;4.60;3.70;;;;;;;13.87;37.71;99017.84;218731;1279;22601;-67
2022/04/12 14:16:31;;;;;;;5.30;4.00;;;;;;;13.90;37.88;99014.16;218678;1279;24252;-68
2022/04/12 14:21:55;;;;;;;5.20;3.70;;;;;;;13.94;37.92;99015.80;218812;1279;24314;-68
2022/04/12 14:26:57;;;;;;;5.00;4.00;;;;;;;13.92;37.61;99017.13;218749;1279;23031;-69
2022/04/12 14:32:00;;;;;;;4.60;4.00;;;;;;;13.86;37.84;99015.64;218790;1279;25387;-68
2022/04/12 14:37:09;;;;;;;5.30;4.40;;;;;;;13.83;37.94;99018.88;218561;1279;22539;-69
2022/04/12 14:42:13;;;;;;;5.90;4.50;;;;;;;13.81;38.10;99016.23;218774;1279;25400;-71
2022/04/12 14:47:16;;;;;;;4.80;4.20;;;;;;;13.86;38.39;99018.71;218819;1279;22544;-69
2022/04/12 14:52:19;;;;;;;5.30;4.30;;;;;;;13.96;38.34;99018.23;218645;1279;22576;-69
2022/04/12 14:57:26;;;;;;;6.50;3.90;;;;;;;14.03;37.88;99016.10;218936;1279;22727;-68
2022/04/12 15:02:28;;;;;;;4.60;4.10;;;;;;;14.06;37.48;99009.52;218709;1279;22848;-69
2022/04/12 15:07:35;;;;;;;5.40;4.30;;;;;;;14.09;37.73;99011.08;218633;1279;22488;-69
2022/04/12 15:12:39;;;;;;;5.80;4.40;;;;;;;14.12;37.62;99018.29;218457;1280;22627;-68
2022/04/12 15:17:45;;;;;;;5.10;4.20;;;;;;;14.09;37.26;99008.12;218861;1278;22656;-69
2022/04/12 15:22:51;;;;;;;6.70;4.10;;;;;;;14.07;37.46;99005.96;218974;1278;22619;-68
2022/04/12 15:27:56;;;;;;;6.20;4.50;;;;;;;14.07;37.43;99007.83;219071;1280;22608;-69
2022/04/12 15:32:58;;;;;;;6.10;4.30;;;;;;;14.04;37.33;99008.82;218424;1279;22716;-67
2022/04/12 15:38:04;;;;;;;6.60;4.20;;;;;;;13.96;37.16;99003.23;218468;1279;25458;-69
2022/04/12 15:43:09;;;;;;;5.30;4.20;;;;;;;13.83;37.30;98999.48;218693;1279;25604;-68
2022/04/12 15:48:12;;;;;;;6.30;4.40;;;;;;;13.70;37.42;99001.03;219257;1279;26343;-69
2022/04/12 15:53:14;;;;;;;5.80;4.30;;;;;;;13.58;37.71;98996.30;218557;1279;22567;-68
2022/04/12 15:58:16;;;;;;;7.70;5.00;;;;;;;13.45;38.01;98995.95;218475;1279;25254;-69
2022/04/12 16:03:19;;;;;;;6.30;5.10;;;;;;;13.34;38.58;98990.58;218554;1279;22619;-68
2022/04/12 16:08:22;;;;;;;7.20;5.00;;;;;;;13.27;39.04;98996.38;218611;1278;22574;-69
2022/04/12 16:13:25;;;;;;;8.30;5.50;;;;;;;13.21;39.14;98997.46;218683;1277;22925;-67
2022/04/12 16:18:28;;;;;;;8.90;6.20;;;;;;;13.13;39.43;98996.73;219204;1278;24250;-68
2022/04/12 16:23:31;;;;;;;8.30;5.80;;;;;;;13.07;40.02;99001.16;218646;1277;25368;-69
2022/04/12 16:28:36;;;;;;;8.00;5.80;;;;;;;13.02;40.26;98995.41;218863;1278;22715;-68
2022/04/12 16:33:39;;;;;;;7.60;5.80;;;;;;;12.96;40.30;98992.30;218236;1279;22960;-68
2022/04/12 16:38:42;;;;;;;7.10;5.40;;;;;;;12.88;40.43;98988.48;218535;1279;22537;-69
2022/04/12 16:43:46;;;;;;;28.90;22.50;;;;;;;12.76;40.22;98989.88;218600;1279;25554;-69
2022/04/12 16:48:48;;;;;;;7.80;6.40;;;;;;;12.64;40.51;99005.15;218907;1279;22738;-68
2022/04/12 16:53:51;;;;;;;8.90;5.80;;;;;;;12.49;40.72;99004.70;218699;1280;22595;-68
2022/04/12 16:59:00;;;;;;;9.50;5.40;;;;;;;12.34;41.56;99012.04;218529;1279;24349;-69
2022/04/12 17:04:03;;;;;;;8.80;5.90;;;;;;;12.17;41.97;99013.27;218766;1279;23827;-68
2022/04/12 17:09:11;;;;;;;7.50;5.60;;;;;;;11.98;41.83;99015.00;218791;1278;25406;-69
2022/04/12 17:14:16;;;;;;;7.80;5.50;;;;;;;11.77;42.01;99016.57;218801;1277;23947;-68
2022/04/12 17:19:53;;;;;;;7.30;5.70;;;;;;;11.53;42.48;99018.19;218999;1279;25383;-68
2022/04/12 17:24:55;;;;;;;6.50;5.10;;;;;;;11.30;43.11;99020.14;218791;1280;24224;-71
2022/04/12 17:29:58;;;;;;;7.40;5.20;;;;;;;11.07;43.42;99019.01;218745;1280;22802;-69
2022/04/12 17:35:03;;;;;;;8.40;5.70;;;;;;;10.82;43.59;99018.95;218758;1279;22535;-69
2022/04/12 17:40:16;;;;;;;8.20;5.80;;;;;;;10.60;43.43;99030.30;218739;1279;22554;-69
2022/04/12 17:45:31;;;;;;;11.90;7.20;;;;;;;10.37;43.66;99030.17;218820;1279;22548;-69
2022/04/12 17:50:39;;;;;;;23.50;14.60;;;;;;;10.15;43.28;99037.55;218665;1279;22618;-69
2022/04/12 17:55:45;;;;;;;27.50;17.10;;;;;;;10.02;43.26;99043.14;218482;1279;24132;-68
2022/04/12 18:00:58;;;;;;;31.50;17.90;;;;;;;9.91;43.18;99042.90;218194;1279;22629;-69
2022/04/12 18:06:03;;;;;;;34.10;18.50;;;;;;;9.77;43.24;99048.80;218789;1279;22697;-68
2022/04/12 18:11:08;;;;;;;27.60;15.50;;;;;;;9.66;43.33;99052.88;218550;1278;22623;-69
2022/04/12 18:16:15;;;;;;;26.60;15.10;;;;;;;9.52;43.71;99055.83;218664;1277;22683;-68
2022/04/12 18:21:22;;;;;;;29.20;15.80;;;;;;;9.39;43.72;99060.32;218664;1277;22573;-70
2022/04/12 18:26:33;;;;;;;27.50;15.30;;;;;;;9.33;44.02;99061.73;218670;1277;22991;-69
2022/04/12 18:31:41;;;;;;;35.50;19.70;;;;;;;9.22;44.05;99071.27;218450;1279;25335;-68
2022/04/12 18:36:47;;;;;;;42.50;22.60;;;;;;;9.10;44.32;99073.17;218704;1279;22638;-71
2022/04/12 18:41:50;;;;;;;35.00;19.30;;;;;;;8.98;44.60;99078.39;218640;1279;22544;-70
2022/04/12 18:46:54;;;;;;;34.10;16.70;;;;;;;8.86;44.80;99085.36;218889;1279;22611;-67
2022/04/12 18:52:01;;;;;;;28.20;15.40;;;;;;;8.77;45.35;99082.64;218589;1279;25349;-67
2022/04/12 18:57:08;;;;;;;27.30;15.40;;;;;;;8.66;45.97;99079.27;218756;1279;22563;-68
2022/04/12 19:02:15;;;;;;;35.40;19.10;;;;;;;8.48;47.17;99076.92;218601;1279;22537;-72
2022/04/12 19:07:22;;;;;;;38.20;22.50;;;;;;;8.20;48.23;99084.19;218798;1280;22615;-69
2022/04/12 19:12:25;;;;;;;33.30;21.20;;;;;;;7.97;48.97;99089.70;218766;1278;22573;-68
2022/04/12 19:17:31;;;;;;;34.50;20.00;;;;;;;7.83;49.67;99085.88;218547;1277;22556;-67
2022/04/12 19:22:36;;;;;;;29.70;17.40;;;;;;;7.72;50.52;99089.95;218386;1278;24584;-68
2022/04/12 19:27:39;;;;;;;25.70;16.00;;;;;;;7.61;50.68;99094.38;218058;1277;652984;-70
2022/04/12 19:32:51;;;;;;;33.20;16.30;;;;;;;7.50;51.48;99101.84;218447;1278;24355;-69
2022/04/12 19:37:53;;;;;;;26.30;15.20;;;;;;;7.37;51.59;99104.83;218374;1280;22820;-71
2022/04/12 19:42:56;;;;;;;28.30;14.20;;;;;;;7.24;52.21;99102.90;218480;1281;24355;-69
2022/04/12 19:47:59;;;;;;;28.20;14.80;;;;;;;7.14;52.56;99109.27;218657;1281;22542;-69
2022/04/12 19:53:01;;;;;;;23.90;14.80;;;;;;;7.02;53.34;99111.19;218347;1280;22645;-70
2022/04/12 19:58:06;;;;;;;26.20;15.70;;;;;;;6.89;53.76;99108.96;218126;1281;25391;-69
2022/04/12 20:03:12;;;;;;;22.70;13.50;;;;;;;6.74;54.30;99110.45;218809;1278;22577;-68
2022/04/12 20:08:23;;;;;;;26.50;14.30;;;;;;;6.61;54.89;99106.20;218656;1280;22563;-70
2022/04/12 20:13:26;;;;;;;22.50;13.30;;;;;;;6.50;54.94;99104.45;218741;1278;23966;-68
2022/04/12 20:18:28;;;;;;;25.00;13.20;;;;;;;6.41;55.00;99109.84;219066;1277;22569;-69
2022/04/12 20:23:32;;;;;;;24.40;13.20;;;;;;;6.32;55.40;99106.95;218751;1278;24794;-69
2022/04/12 20:28:36;;;;;;;25.60;13.70;;;;;;;6.23;55.76;99104.63;218630;1278;24642;-69
2022/04/12 20:33:46;;;;;;;21.10;13.20;;;;;;;6.13;56.15;99105.29;218378;1281;25433;-69
2022/04/12 20:38:49;;;;;;;25.70;13.90;;;;;;;6.08;56.54;99109.91;218562;1280;24240;-69
2022/04/12 20:43:51;;;;;;;26.20;13.70;;;;;;;6.04;56.64;99109.42;218666;1281;25658;-68
2022/04/12 20:48:53;;;;;;;25.40;15.70;;;;;;;5.97;57.16;99110.95;218598;1280;25333;-69
2022/04/12 20:53:55;;;;;;;25.90;15.70;;;;;;;5.90;57.24;99111.54;218291;1281;25279;-68
2022/04/12 20:58:58;;;;;;;26.40;13.40;;;;;;;5.82;57.57;99111.29;218202;1281;22589;-68
2022/04/12 21:04:03;;;;;;;20.90;14.50;;;;;;;5.74;57.76;99111.26;218575;1281;22562;-69
2022/04/12 21:09:11;;;;;;;21.20;12.30;;;;;;;5.75;58.13;99108.92;218404;1279;25323;-69
2022/04/12 21:14:14;;;;;;;22.90;14.20;;;;;;;5.77;58.35;99104.70;218366;1277;22552;-68
2022/04/12 21:19:17;;;;;;;21.10;12.80;;;;;;;5.79;58.50;99103.83;218602;1281;22653;-68
2022/04/12 21:24:19;;;;;;;19.10;12.30;;;;;;;5.77;58.19;99097.56;218666;1277;22541;-68
2022/04/12 21:29:22;;;;;;;19.20;10.90;;;;;;;5.77;58.80;99102.67;218532;1277;22619;-69
2022/04/12 21:34:27;;;;;;;19.50;12.20;;;;;;;5.75;58.53;99108.34;218376;1280;22489;-68
2022/04/12 21:39:29;;;;;;;23.30;13.90;;;;;;;5.65;58.41;99103.65;218426;1280;22662;-68
2022/04/12 21:44:32;;;;;;;20.90;14.00;;;;;;;5.56;58.93;99102.70;218473;1280;22574;-69
2022/04/12 21:49:34;;;;;;;18.70;13.00;;;;;;;5.48;59.07;99097.81;218556;1280;22573;-70
2022/04/12 21:54:36;;;;;;;19.50;13.30;;;;;;;5.43;59.18;99096.21;218409;1281;22967;-69
2022/04/12 21:59:41;;;;;;;22.70;13.60;;;;;;;5.35;59.22;99092.07;218034;1280;22703;-68
2022/04/12 22:04:45;;;;;;;21.80;14.10;;;;;;;5.30;59.33;99090.47;218274;1280;22596;-69
2022/04/12 22:09:47;;;;;;;23.90;14.30;;;;;;;5.28;59.44;99081.16;218302;1277;22545;-67
2022/04/12 22:14:50;;;;;;;21.40;12.40;;;;;;;5.23;59.45;99084.05;218385;1278;23910;-68
2022/04/12 22:19:52;;;;;;;21.10;13.50;;;;;;;5.19;59.60;99089.00;218608;1277;25467;-68
2022/04/12 22:24:54;;;;;;;17.90;12.20;;;;;;;5.15;59.52;99084.05;218428;1277;25264;-68
2022/04/12 22:29:58;;;;;;;19.80;11.30;;;;;;;5.09;59.62;99092.42;218372;1278;25267;-68
2022/04/12 22:35:08;;;;;;;17.30;11.70;;;;;;;5.06;59.53;99089.39;218383;1280;25478;-68
2022/04/12 22:40:14;;;;;;;18.10;11.80;;;;;;;5.00;59.70;99090.16;218902;1279;22978;-68
2022/04/12 22:45:17;;;;;;;17.40;11.10;;;;;;;4.94;59.49;99099.48;218741;1279;25385;-68
2022/04/12 22:50:25;;;;;;;17.00;11.20;;;;;;;4.89;59.60;99103.70;218481;1279;22567;-69
2022/04/12 22:55:28;;;;;;;20.00;12.00;;;;;;;4.86;59.78;99096.87;218907;1279;22604;-70
2022/04/12 23:00:31;;;;;;;18.00;11.90;;;;;;;4.82;59.88;99092.77;219014;1279;23266;-68
2022/04/12 23:05:36;;;;;;;18.90;11.40;;;;;;;4.75;59.90;99092.94;218817;1280;23908;-68
2022/04/12 23:10:39;;;;;;;17.70;12.20;;;;;;;4.66;59.97;99085.19;218498;1277;25504;-68
2022/04/12 23:15:42;;;;;;;22.40;12.70;;;;;;;4.57;60.17;99090.41;218619;1277;24237;-68
2022/04/12 23:20:52;;;;;;;20.40;12.10;;;;;;;4.50;60.27;99093.50;218480;1277;25384;-68
2022/04/12 23:25:57;;;;;;;21.10;12.50;;;;;;;4.43;60.44;99097.58;218596;1278;24180;-68
2022/04/12 23:31:03;;;;;;;19.80;12.70;;;;;;;4.36;60.72;99096.02;218391;1277;22581;-67
2022/04/12 23:36:06;;;;;;;21.70;13.70;;;;;;;4.29;60.86;99101.69;218729;1280;22735;-69
2022/04/12 23:41:08;;;;;;;19.90;12.40;;;;;;;4.21;60.88;99102.18;218374;1279;24325;-68
2022/04/12 23:46:14;;;;;;;21.70;12.00;;;;;;;4.15;60.94;99104.02;218332;1279;22688;-68
2022/04/12 23:51:17;;;;;;;15.70;11.00;;;;;;;4.13;60.93;99102.94;218379;1279;22600;-67